Time;durP1;ratioP1;P1;durP2;ratioP2;P2;SDS_P1;SDS_P2;PMS_P1;PMS_P2;Temp;Humidity;BMP_temperature;BMP_pressure;BME280_temperature;BME280_humidity;BME280_pressure;Samples;Min_cycle;Max_cycle;Signal;HPM_P1;HPM_P2
2022/04/25 00:01:40;;;;;;;2.17;1.00;;;14.30;67.10;;;;;;5107394;28;20036;-72
2022/04/25 00:04:06;;;;;;;0.70;0.70;;;14.30;66.60;;;;;;5113096;28;20380;-73
2022/04/25 00:06:32;;;;;;;1.27;0.90;;;14.20;66.50;;;;;;5112684;28;20015;-72
2022/04/25 00:08:58;;;;;;;0.68;0.57;;;14.30;66.90;;;;;;5105935;28;20023;-73
2022/04/25 00:11:23;;;;;;;1.17;1.00;;;14.30;67.10;;;;;;5114364;28;20069;-73
2022/04/25 00:13:49;;;;;;;1.02;0.82;;;14.30;67.20;;;;;;5101508;28;20122;-73
2022/04/25 00:16:15;;;;;;;1.27;0.88;;;14.30;67.10;;;;;;5111962;28;20469;-72
2022/04/25 00:18:41;;;;;;;1.10;0.70;;;14.30;67.00;;;;;;5114046;28;20028;-74
2022/04/25 00:21:06;;;;;;;2.55;1.00;;;14.30;67.10;;;;;;5109200;28;20024;-72
2022/04/25 00:23:32;;;;;;;1.20;0.82;;;14.30;67.20;;;;;;5102010;28;20028;-73
2022/04/25 00:25:58;;;;;;;0.77;0.68;;;14.20;67.10;;;;;;5109578;28;20020;-71
2022/04/25 00:28:24;;;;;;;1.38;0.77;;;14.20;66.90;;;;;;5113828;28;20107;-73
2022/04/25 00:30:50;;;;;;;1.13;0.90;;;14.30;67.10;;;;;;5112242;28;20027;-72
2022/04/25 00:33:16;;;;;;;0.95;0.77;;;14.30;67.10;;;;;;5111957;28;20115;-72
2022/04/25 00:35:42;;;;;;;0.60;0.60;;;14.20;67.10;;;;;;5113697;28;20103;-72
2022/04/25 00:38:09;;;;;;;2.13;1.27;;;14.20;67.10;;;;;;5112056;28;20020;-71
2022/04/25 00:40:35;;;;;;;1.30;1.08;;;14.30;67.20;;;;;;5112414;28;20525;-73
2022/04/25 00:43:01;;;;;;;1.20;0.90;;;14.30;67.40;;;;;;5113519;28;20024;-73
2022/04/25 00:45:26;;;;;;;1.60;0.73;;;14.30;67.30;;;;;;5113637;28;20076;-73
2022/04/25 00:47:52;;;;;;;2.05;0.60;;;14.20;67.10;;;;;;5106878;28;20035;-71
2022/04/25 00:50:18;;;;;;;0.68;0.60;;;14.30;66.80;;;;;;5111780;28;20035;-72
2022/04/25 00:52:44;;;;;;;0.55;0.40;;;14.20;66.20;;;;;;5113410;28;20031;-72
2022/04/25 00:55:11;;;;;;;0.90;0.57;;;14.20;66.20;;;;;;5111376;28;20024;-72
2022/04/25 00:57:38;;;;;;;1.05;0.50;;;14.10;66.00;;;;;;5098962;28;20051;-72
2022/04/25 01:00:10;;;;;;;0.82;0.40;;;14.10;66.10;;;;;;5109520;28;20100;-73
2022/04/25 01:02:36;;;;;;;0.63;0.40;;;14.00;66.00;;;;;;5099186;28;20546;-71
2022/04/25 01:05:04;;;;;;;0.50;0.40;;;14.00;66.10;;;;;;5113001;28;20023;-73
2022/04/25 01:07:31;;;;;;;0.65;0.40;;;14.00;66.20;;;;;;5109215;28;20039;-72
2022/04/25 01:09:57;;;;;;;0.40;0.20;;;13.90;66.40;;;;;;5109509;28;20107;-71
2022/04/25 01:12:23;;;;;;;1.90;0.45;;;13.90;66.40;;;;;;5104231;28;20107;-72
2022/04/25 01:15:05;;;;;;;0.68;0.30;;;13.90;66.40;;;;;;5112664;28;20027;-71
2022/04/25 01:17:31;;;;;;;1.27;0.35;;;13.90;66.30;;;;;;5114045;28;20034;-71
2022/04/25 01:19:57;;;;;;;0.30;0.30;;;13.90;66.30;;;;;;5109838;28;20031;-72
2022/04/25 01:22:48;;;;;;;0.63;0.50;;;13.80;66.40;;;;;;5096426;28;20449;-72
2022/04/25 01:28:01;;;;;;;;;;;13.80;66.40;;;;;;5113263;28;20031;-73
2022/04/25 01:30:28;;;;;;;0.20;0.20;;;13.80;65.90;;;;;;5109530;28;20198;-72
2022/04/25 01:32:54;;;;;;;0.30;0.20;;;13.80;66.20;;;;;;5108963;28;20031;-72
2022/04/25 01:35:19;;;;;;;0.35;0.25;;;13.70;66.20;;;;;;5113174;28;20393;-73
2022/04/25 01:37:45;;;;;;;0.20;0.20;;;13.70;66.00;;;;;;5111317;28;20031;-72
2022/04/25 01:40:11;;;;;;;0.90;0.28;;;13.60;66.20;;;;;;5113016;28;20024;-73
2022/04/25 01:42:37;;;;;;;0.17;0.13;;;13.60;66.40;;;;;;5114534;28;20544;-72
2022/04/25 01:45:03;;;;;;;1.45;0.40;;;13.60;66.40;;;;;;5102539;28;20107;-72
2022/04/25 01:47:29;;;;;;;2.97;0.38;;;13.60;66.40;;;;;;5096677;28;20115;-72
2022/04/25 01:49:54;;;;;;;0.20;0.20;;;13.60;66.60;;;;;;5096893;28;20091;-72
2022/04/25 01:52:26;;;;;;;0.30;0.30;;;13.60;66.60;;;;;;5096826;28;20035;-72
2022/04/25 01:54:52;;;;;;;0.32;0.22;;;13.60;66.60;;;;;;5096718;28;20052;-72
2022/04/25 01:57:18;;;;;;;0.43;0.20;;;13.50;66.60;;;;;;5096770;28;20055;-74
2022/04/25 01:59:45;;;;;;;0.10;0.10;;;13.50;66.70;;;;;;5096465;28;20461;-72
2022/04/25 02:02:12;;;;;;;0.25;0.20;;;13.60;66.70;;;;;;5099622;28;20028;-73
2022/04/25 02:04:38;;;;;;;0.30;0.28;;;13.50;66.70;;;;;;5096696;28;20091;-71
2022/04/25 02:07:06;;;;;;;0.90;0.30;;;13.60;66.80;;;;;;5096727;28;20013;-73
2022/04/25 02:09:32;;;;;;;0.98;0.30;;;13.60;66.80;;;;;;5096496;28;20024;-72
2022/04/25 02:11:57;;;;;;;0.20;0.20;;;13.50;66.60;;;;;;5096551;28;20107;-73
2022/04/25 02:14:23;;;;;;;0.35;0.22;;;13.60;66.70;;;;;;5094876;28;20053;-71
2022/04/25 02:16:49;;;;;;;1.65;0.47;;;13.60;66.70;;;;;;5096337;28;20123;-72
2022/04/25 02:19:15;;;;;;;0.28;0.28;;;13.60;66.70;;;;;;5099410;28;20149;-73
2022/04/25 02:21:41;;;;;;;0.45;0.35;;;13.60;66.40;;;;;;5096177;28;20111;-72
2022/04/25 02:24:07;;;;;;;0.70;0.40;;;13.50;66.20;;;;;;5099743;28;20028;-71
2022/04/25 02:26:32;;;;;;;0.40;0.30;;;13.60;66.40;;;;;;5096136;28;20028;-71
2022/04/25 02:28:58;;;;;;;0.77;0.50;;;13.50;66.50;;;;;;5096073;28;20151;-73
2022/04/25 02:31:24;;;;;;;0.60;0.55;;;13.60;66.50;;;;;;5096717;28;20031;-73
2022/04/25 02:33:50;;;;;;;1.05;0.50;;;13.60;66.40;;;;;;5116441;28;20020;-72
2022/04/25 02:36:17;;;;;;;6.22;1.75;;;13.60;66.70;;;;;;5110482;28;20028;-72
2022/04/25 02:38:43;;;;;;;1.80;1.20;;;13.60;66.80;;;;;;5116009;28;20076;-72
2022/04/25 02:41:09;;;;;;;2.85;1.63;;;13.60;66.80;;;;;;5116230;28;20072;-71
2022/04/25 02:43:40;;;;;;;3.28;1.65;;;13.60;66.90;;;;;;5116148;28;20024;-72
2022/04/25 02:46:08;;;;;;;0.80;0.77;;;13.60;66.80;;;;;;5114996;28;20471;-72
2022/04/25 02:48:35;;;;;;;1.08;0.70;;;13.60;66.70;;;;;;5096066;28;20026;-72
2022/04/25 02:51:03;;;;;;;1.17;0.60;;;13.60;66.40;;;;;;5095744;28;20495;-72
2022/04/25 02:53:29;;;;;;;0.45;0.40;;;13.60;66.70;;;;;;5095551;28;20418;-74
2022/04/25 02:55:55;;;;;;;0.75;0.60;;;13.70;66.80;;;;;;5095621;28;20035;-73
2022/04/25 02:58:21;;;;;;;0.85;0.50;;;13.70;66.80;;;;;;5098710;28;20111;-72
2022/04/25 03:00:48;;;;;;;0.20;0.20;;;13.70;66.60;;;;;;5095483;28;20040;-71
2022/04/25 03:03:16;;;;;;;0.43;0.30;;;13.70;66.80;;;;;;5095350;28;20474;-73
2022/04/25 03:05:46;;;;;;;0.47;0.47;;;13.70;66.80;;;;;;5095427;28;20024;-71
2022/04/25 03:08:13;;;;;;;0.50;0.50;;;13.70;66.80;;;;;;5106134;28;20020;-72
2022/04/25 03:10:42;;;;;;;0.50;0.50;;;13.70;66.60;;;;;;5095301;28;20024;-73
2022/04/25 03:13:09;;;;;;;0.60;0.57;;;13.70;66.80;;;;;;5095246;28;20031;-71
2022/04/25 03:15:39;;;;;;;0.70;0.60;;;13.70;66.80;;;;;;5095258;28;20032;-73
2022/04/25 03:18:13;;;;;;;0.85;0.68;;;13.70;66.90;;;;;;5093868;28;20032;-71
2022/04/25 03:20:41;;;;;;;1.83;0.90;;;13.70;67.20;;;;;;5093927;28;20028;-73
2022/04/25 03:23:08;;;;;;;0.75;0.73;;;13.70;67.40;;;;;;5093742;28;20032;-71
2022/04/25 03:25:34;;;;;;;0.75;0.63;;;13.70;67.30;;;;;;5095039;28;20020;-73
2022/04/25 03:28:01;;;;;;;1.48;0.50;;;13.70;67.40;;;;;;5099424;28;20020;-72
2022/04/25 03:30:28;;;;;;;0.47;0.40;;;13.70;67.40;;;;;;5113933;28;20031;-71
2022/04/25 03:32:56;;;;;;;0.60;0.60;;;13.70;67.60;;;;;;5113500;28;20024;-72
2022/04/25 03:35:23;;;;;;;1.10;0.75;;;13.70;67.80;;;;;;5115179;28;20099;-72
2022/04/25 03:37:51;;;;;;;1.10;1.00;;;13.70;68.00;;;;;;5115333;28;20080;-73
2022/04/25 03:40:17;;;;;;;0.80;0.77;;;13.70;67.80;;;;;;5115122;28;20022;-72
2022/04/25 03:42:46;;;;;;;1.00;0.90;;;13.80;67.80;;;;;;5115185;28;20034;-73
2022/04/25 03:45:16;;;;;;;1.90;1.05;;;13.80;68.60;;;;;;5109248;28;20027;-71
2022/04/25 03:47:43;;;;;;;1.30;1.00;;;13.80;67.90;;;;;;5115086;28;20019;-72
2022/04/25 03:50:10;;;;;;;1.30;0.93;;;13.80;67.80;;;;;;5115185;28;20028;-71
2022/04/25 03:52:37;;;;;;;1.40;1.08;;;13.80;67.90;;;;;;5104611;28;20020;-72
2022/04/25 03:57:55;;;;;;;1.05;0.98;;;13.80;67.50;;;;;;5094865;28;20384;-71
2022/04/25 04:00:22;;;;;;;0.85;0.82;;;13.80;67.30;;;;;;5094330;28;20106;-72
2022/04/25 04:02:47;;;;;;;1.35;0.95;;;13.80;67.50;;;;;;5097546;28;20035;-73
2022/04/25 04:05:14;;;;;;;1.20;1.10;;;13.80;67.60;;;;;;5093654;28;20020;-71
2022/04/25 04:07:40;;;;;;;2.90;1.25;;;13.80;67.60;;;;;;5100823;28;20027;-72
2022/04/25 04:10:06;;;;;;;2.15;0.90;;;13.80;67.30;;;;;;5114650;28;20015;-73
2022/04/25 04:12:34;;;;;;;0.95;0.90;;;13.70;67.20;;;;;;5112805;28;20031;-72
2022/04/25 04:15:05;;;;;;;1.45;0.88;;;13.80;67.20;;;;;;5114712;28;20063;-71
2022/04/25 04:17:35;;;;;;;1.00;0.90;;;13.80;67.30;;;;;;5113176;28;20020;-73
2022/04/25 04:20:03;;;;;;;2.75;0.95;;;13.80;67.30;;;;;;5114419;28;20476;-71
2022/04/25 04:22:32;;;;;;;0.80;0.77;;;13.70;67.20;;;;;;5114274;28;20034;-73
2022/04/25 04:25:05;;;;;;;1.05;0.95;;;13.70;67.30;;;;;;5114306;28;20024;-70
2022/04/25 04:27:32;;;;;;;0.90;0.90;;;13.70;67.10;;;;;;5110919;28;20020;-72
2022/04/25 04:29:58;;;;;;;0.93;0.80;;;13.70;67.00;;;;;;5114243;28;20047;-71
2022/04/25 04:32:29;;;;;;;1.75;0.90;;;13.70;67.00;;;;;;5112465;28;20522;-72
2022/04/25 04:34:56;;;;;;;1.23;0.93;;;13.70;67.10;;;;;;5114175;28;20156;-72
2022/04/25 04:37:23;;;;;;;2.78;1.38;;;13.70;67.30;;;;;;5114074;28;20020;-72
2022/04/25 04:39:49;;;;;;;1.35;1.13;;;13.70;67.30;;;;;;5113702;28;20028;-70
2022/04/25 04:42:15;;;;;;;1.40;0.73;;;13.70;67.50;;;;;;5114030;28;20050;-72
2022/04/25 04:44:42;;;;;;;1.33;1.08;;;13.70;67.40;;;;;;5113979;28;20023;-71
2022/04/25 04:47:08;;;;;;;1.13;1.00;;;13.70;67.50;;;;;;5113851;28;20099;-70
2022/04/25 04:49:34;;;;;;;1.42;1.05;;;13.80;67.60;;;;;;5113913;28;20098;-71
2022/04/25 04:52:00;;;;;;;2.25;0.90;;;13.80;67.60;;;;;;5108422;28;20024;-71
2022/04/25 04:54:26;;;;;;;2.05;0.90;;;13.80;67.60;;;;;;5092188;28;20546;-72
2022/04/25 04:56:51;;;;;;;2.92;1.00;;;13.80;67.70;;;;;;5093432;28;20024;-71
2022/04/25 04:59:17;;;;;;;2.15;0.90;;;13.80;67.60;;;;;;5093178;28;20458;-72
2022/04/25 05:01:43;;;;;;;1.65;0.80;;;13.90;67.70;;;;;;5093277;28;20019;-71
2022/04/25 05:04:09;;;;;;;7.10;1.10;;;13.90;67.50;;;;;;5093289;28;20491;-73
2022/04/25 05:06:35;;;;;;;0.80;0.80;;;13.90;67.20;;;;;;5093053;28;20050;-74
2022/04/25 05:09:01;;;;;;;1.30;0.98;;;13.90;67.40;;;;;;5091877;28;20477;-71
2022/04/25 05:11:29;;;;;;;1.30;0.90;;;13.90;67.40;;;;;;5093188;28;20112;-73
2022/04/25 05:13:55;;;;;;;3.47;1.05;;;13.90;67.40;;;;;;5095601;28;20027;-73
2022/04/25 05:16:21;;;;;;;1.20;0.88;;;14.00;67.40;;;;;;5092250;28;20016;-72
2022/04/25 05:18:46;;;;;;;4.18;1.95;;;14.00;67.60;;;;;;5093101;28;20069;-74
2022/04/25 05:21:13;;;;;;;1.10;1.00;;;14.10;67.80;;;;;;5094012;28;20027;-74
2022/04/25 05:23:41;;;;;;;1.92;1.23;;;14.10;67.80;;;;;;5092935;28;20041;-72
2022/04/25 05:26:08;;;;;;;1.73;1.33;;;14.10;67.80;;;;;;5092725;28;20492;-74
2022/04/25 05:28:33;;;;;;;1.73;1.33;;;14.10;67.50;;;;;;5109692;28;20068;-71
2022/04/25 05:30:59;;;;;;;1.70;1.42;;;14.10;67.30;;;;;;5111872;28;20122;-72
2022/04/25 05:33:25;;;;;;;2.03;1.50;;;14.20;67.50;;;;;;5103811;28;20048;-72
2022/04/25 05:35:52;;;;;;;2.55;1.48;;;14.20;67.60;;;;;;5091393;28;20038;-73
2022/04/25 05:38:18;;;;;;;1.67;1.30;;;14.20;67.50;;;;;;5092771;28;20020;-70
2022/04/25 05:40:44;;;;;;;8.18;1.45;;;14.30;67.70;;;;;;5094942;28;20027;-72
2022/04/25 05:43:10;;;;;;;2.40;1.35;;;14.30;67.40;;;;;;5092359;28;20024;-71
2022/04/25 05:45:36;;;;;;;1.98;1.40;;;14.30;67.20;;;;;;5092252;28;20103;-72
2022/04/25 05:51:58;;;;;;;1.30;1.20;;;14.30;67.20;;;;;;5092755;28;20020;-73
2022/04/25 05:53:36;;;;;;;2.55;1.75;;;14.40;67.20;;;;;;5092692;28;20039;-73
2022/04/25 05:56:02;;;;;;;2.10;1.30;;;14.40;67.20;;;;;;5092623;28;20024;-73
2022/04/25 05:58:28;;;;;;;2.75;1.10;;;14.40;67.10;;;;;;5092413;28;20027;-73
2022/04/25 06:00:53;;;;;;;1.20;1.05;;;14.50;66.90;;;;;;5100683;28;20054;-72
2022/04/25 06:03:19;;;;;;;3.22;2.10;;;14.50;66.90;;;;;;5112899;28;20035;-71
2022/04/25 06:05:45;;;;;;;1.88;1.50;;;14.50;67.20;;;;;;5095859;28;20460;-73
2022/04/25 06:08:11;;;;;;;2.70;1.70;;;14.50;66.80;;;;;;5092566;28;20470;-73
2022/04/25 06:10:36;;;;;;;1.67;1.45;;;14.50;66.70;;;;;;5092347;28;20489;-73
2022/04/25 06:13:02;;;;;;;1.90;1.50;;;14.50;66.70;;;;;;5092502;28;20112;-72
2022/04/25 06:15:30;;;;;;;2.28;1.50;;;14.50;66.90;;;;;;5092569;28;20048;-72
2022/04/25 06:17:56;;;;;;;3.35;2.60;;;14.50;67.10;;;;;;5092544;28;20020;-71
2022/04/25 06:20:23;;;;;;;3.22;2.33;;;14.50;67.00;;;;;;5091175;28;20028;-73
2022/04/25 06:23:02;;;;;;;2.40;2.03;;;14.50;66.90;;;;;;5092995;28;20024;-73
2022/04/25 06:25:29;;;;;;;3.20;2.30;;;14.50;67.10;;;;;;5112737;28;20031;-72
2022/04/25 06:27:57;;;;;;;2.65;2.35;;;14.50;67.10;;;;;;5114137;28;20016;-73
2022/04/25 06:30:24;;;;;;;3.78;2.42;;;14.50;67.30;;;;;;5116562;28;20027;-72
2022/04/25 06:32:52;;;;;;;2.13;1.90;;;14.50;67.40;;;;;;5116660;28;20028;-72
2022/04/25 06:35:20;;;;;;;3.63;2.20;;;14.50;67.60;;;;;;5116514;28;20366;-72
2022/04/25 06:37:46;;;;;;;6.55;2.20;;;14.60;68.00;;;;;;5116415;28;20019;-73
2022/04/25 06:40:12;;;;;;;2.72;2.10;;;14.60;67.90;;;;;;5110761;28;20028;-74
2022/04/25 06:42:38;;;;;;;3.53;2.25;;;14.60;67.40;;;;;;5116035;28;20038;-72
2022/04/25 06:45:05;;;;;;;3.90;2.50;;;14.60;67.10;;;;;;5099582;28;20028;-72
2022/04/25 06:47:31;;;;;;;2.10;1.85;;;14.60;67.40;;;;;;5095925;28;20073;-73
2022/04/25 06:49:57;;;;;;;2.95;2.55;;;14.60;67.90;;;;;;5095902;28;20470;-71
2022/04/25 06:52:23;;;;;;;2.90;2.25;;;14.70;68.40;;;;;;5095719;28;20362;-74
2022/04/25 06:54:49;;;;;;;3.05;2.47;;;14.80;68.20;;;;;;5095815;28;20020;-72
2022/04/25 06:57:15;;;;;;;3.50;2.22;;;14.80;68.20;;;;;;5095694;28;20020;-73
2022/04/25 06:59:42;;;;;;;2.92;2.55;;;14.90;68.10;;;;;;5095460;28;20047;-75
2022/04/25 07:02:07;;;;;;;3.80;2.70;;;15.00;68.40;;;;;;5095592;28;20074;-74
2022/04/25 07:04:33;;;;;;;3.08;2.30;;;15.00;67.90;;;;;;5095513;28;20016;-72
2022/04/25 07:06:59;;;;;;;4.75;3.03;;;15.10;67.80;;;;;;5095593;28;20062;-73
2022/04/25 07:09:25;;;;;;;3.47;2.38;;;15.10;67.90;;;;;;5103985;28;20022;-73
2022/04/25 07:11:50;;;;;;;6.53;3.05;;;15.20;68.40;;;;;;5114468;28;20138;-73
2022/04/25 07:14:18;;;;;;;3.58;2.70;;;15.30;68.30;;;;;;5115861;28;20026;-72
2022/04/25 07:16:48;;;;;;;3.15;2.83;;;15.40;68.50;;;;;;5115803;28;20089;-74
2022/04/25 07:19:15;;;;;;;3.85;3.40;;;15.50;68.60;;;;;;5115733;28;20016;-74
2022/04/25 07:29:54;;;;;;;4.20;3.03;;;15.90;65.80;;;;;;5109506;28;20080;-72
2022/04/25 07:32:20;;;;;;;4.53;4.00;;;15.90;66.00;;;;;;5114647;28;20031;-75
2022/04/25 07:34:47;;;;;;;5.03;3.83;;;16.00;66.00;;;;;;5115314;28;20024;-70
2022/04/25 07:37:17;;;;;;;4.43;3.75;;;16.10;66.10;;;;;;5115280;28;20392;-74
2022/04/25 07:39:45;;;;;;;4.20;3.78;;;16.20;65.80;;;;;;5100288;28;20032;-71
2022/04/25 07:42:12;;;;;;;5.93;3.80;;;16.40;66.10;;;;;;5093544;28;20105;-72
2022/04/25 07:44:38;;;;;;;5.70;3.70;;;16.50;66.40;;;;;;5094669;28;20039;-73
2022/04/25 07:47:05;;;;;;;4.30;3.78;;;16.70;66.30;;;;;;5094542;28;20028;-73
2022/04/25 07:49:33;;;;;;;4.05;3.30;;;16.80;64.30;;;;;;5094539;28;20099;-73
2022/04/25 07:51:59;;;;;;;6.82;3.65;;;16.90;63.90;;;;;;5093256;28;20032;-72
2022/04/25 07:54:25;;;;;;;4.57;3.17;;;16.90;61.80;;;;;;5111608;28;20114;-73
2022/04/25 07:56:51;;;;;;;4.18;3.78;;;16.80;61.60;;;;;;5115290;28;20452;-73
2022/04/25 07:59:18;;;;;;;4.78;4.18;;;16.70;60.30;;;;;;5108614;28;20197;-70
2022/04/25 08:01:44;;;;;;;4.80;4.03;;;16.70;60.70;;;;;;5114582;28;20024;-73
2022/04/25 08:04:11;;;;;;;6.47;5.05;;;16.50;59.80;;;;;;5114579;28;20031;-72
2022/04/25 08:06:38;;;;;;;5.97;5.25;;;16.40;60.00;;;;;;5113151;28;20062;-71
2022/04/25 08:09:05;;;;;;;5.95;3.85;;;16.30;59.60;;;;;;5114419;28;20026;-73
2022/04/25 08:11:31;;;;;;;7.38;5.15;;;16.20;60.30;;;;;;5111463;28;20023;-73
2022/04/25 08:19:37;;;;;;;6.10;5.28;;;16.40;63.60;;;;;;5030146;28;20148;-73
2022/04/25 08:22:07;;;;;;;5.75;4.80;;;16.50;63.10;;;;;;5093794;28;20073;-73
2022/04/25 08:24:33;;;;;;;6.60;5.28;;;16.70;63.60;;;;;;5093829;28;20024;-72
2022/04/25 08:26:59;;;;;;;5.07;4.57;;;16.90;63.60;;;;;;5093836;28;20020;-73
2022/04/25 08:29:24;;;;;;;6.95;5.40;;;17.00;63.50;;;;;;5091768;28;20097;-71
2022/04/25 08:31:51;;;;;;;6.75;5.82;;;17.20;62.80;;;;;;5097183;28;20042;-71
2022/04/25 08:34:17;;;;;;;5.65;5.00;;;17.30;61.40;;;;;;5093754;28;20028;-71
2022/04/25 08:36:43;;;;;;;6.88;5.50;;;17.30;61.00;;;;;;5093427;28;20024;-73
2022/04/25 08:39:09;;;;;;;6.15;5.18;;;17.40;60.00;;;;;;5093538;28;20024;-75
2022/04/25 08:41:46;;;;;;;5.57;4.97;;;17.50;60.30;;;;;;5102513;28;20028;-72
2022/04/25 08:44:16;;;;;;;7.60;5.28;;;17.60;61.40;;;;;;5112078;28;20079;-71
2022/04/25 08:46:46;;;;;;;5.53;4.70;;;17.70;60.00;;;;;;5099755;28;20016;-71
2022/04/25 08:49:13;;;;;;;6.30;5.28;;;17.90;59.80;;;;;;5092015;28;20027;-75
2022/04/25 08:51:40;;;;;;;5.20;4.70;;;17.90;58.90;;;;;;5093206;28;20016;-73
2022/04/25 08:54:08;;;;;;;6.28;4.90;;;18.00;59.30;;;;;;5092823;28;20073;-72
2022/04/25 08:56:36;;;;;;;5.97;5.28;;;18.00;58.80;;;;;;5104517;28;20016;-74
2022/04/25 08:59:05;;;;;;;5.88;4.93;;;18.10;58.50;;;;;;5110414;28;20043;-74
2022/04/25 09:01:32;;;;;;;5.90;4.70;;;18.20;60.70;;;;;;5105933;28;20073;-72
2022/04/25 09:03:59;;;;;;;5.93;4.97;;;18.30;59.70;;;;;;5100111;28;20488;-73
2022/04/25 09:06:25;;;;;;;8.35;4.53;;;18.40;58.60;;;;;;5098246;28;20051;-71
2022/04/25 09:08:51;;;;;;;6.43;4.97;;;18.50;56.60;;;;;;5108746;28;20058;-74
2022/04/25 09:14:02;;;;;;;5.13;4.55;;;18.50;56.60;;;;;;5111258;28;20065;-72
2022/04/25 09:16:28;;;;;;;8.90;5.75;;;18.60;58.20;;;;;;5127041;27;20105;-75
2022/04/25 09:18:54;;;;;;;11.90;5.32;;;18.60;57.40;;;;;;5109017;27;20081;-73
2022/04/25 09:21:20;;;;;;;8.18;5.30;;;18.70;57.00;;;;;;5112759;28;20396;-72
2022/04/25 09:23:45;;;;;;;9.57;5.68;;;18.80;57.50;;;;;;5112283;28;20028;-73
2022/04/25 09:26:16;;;;;;;6.80;5.10;;;18.90;55.70;;;;;;5105592;28;20453;-73
2022/04/25 09:28:53;;;;;;;8.57;4.70;;;19.10;56.40;;;;;;5095158;28;20452;-73
2022/04/25 09:31:21;;;;;;;7.75;5.85;;;19.30;57.50;;;;;;5100180;28;20020;-74
2022/04/25 09:33:48;;;;;;;5.90;5.30;;;19.30;54.30;;;;;;5105214;28;20108;-73
2022/04/25 09:36:14;;;;;;;7.43;4.55;;;19.30;53.00;;;;;;5113896;28;20024;-73
2022/04/25 09:38:41;;;;;;;6.35;5.18;;;19.30;53.00;;;;;;5109936;28;20035;-74
2022/04/25 09:41:10;;;;;;;7.13;5.38;;;19.20;53.30;;;;;;5109923;28;20501;-74
2022/04/25 09:43:41;;;;;;;7.90;6.22;;;19.10;52.90;;;;;;5110694;28;20031;-74
2022/04/25 09:46:09;;;;;;;4.82;4.32;;;19.10;52.20;;;;;;5113772;28;20035;-74
2022/04/25 09:48:37;;;;;;;6.50;4.82;;;19.10;53.80;;;;;;5111843;28;20092;-74
2022/04/25 09:51:11;;;;;;;7.35;5.95;;;19.10;53.80;;;;;;5112862;28;20016;-74
2022/04/25 09:53:53;;;;;;;6.03;5.25;;;19.00;51.90;;;;;;5105914;28;20031;-74
2022/04/25 09:56:19;;;;;;;6.20;5.25;;;18.90;52.00;;;;;;5107083;28;20027;-74
2022/04/25 09:59:00;;;;;;;6.28;5.50;;;18.80;53.00;;;;;;5102066;28;20046;-73
2022/04/25 10:01:26;;;;;;;5.63;4.82;;;18.70;53.80;;;;;;5094024;28;20103;-73
2022/04/25 10:03:52;;;;;;;7.20;6.15;;;18.70;53.20;;;;;;5110155;28;20040;-75
2022/04/25 10:06:19;;;;;;;6.80;6.10;;;18.60;52.90;;;;;;5101200;28;20036;-76
2022/04/25 10:08:45;;;;;;;7.95;5.97;;;18.60;52.50;;;;;;5105847;28;20016;-77
2022/04/25 10:11:14;;;;;;;6.80;5.90;;;18.60;52.50;;;;;;5105977;28;20020;-79
2022/04/25 10:13:40;;;;;;;6.20;5.60;;;18.50;53.60;;;;;;5106128;28;20066;-78
2022/04/25 10:16:06;;;;;;;6.85;6.15;;;18.40;54.30;;;;;;5114616;28;20167;-80
2022/04/25 10:18:32;;;;;;;7.65;6.40;;;18.40;54.80;;;;;;5113039;28;20028;-81
2022/04/25 10:20:59;;;;;;;8.30;7.05;;;18.40;54.90;;;;;;5114583;28;20024;-77
2022/04/25 10:23:25;;;;;;;7.07;6.38;;;18.40;53.40;;;;;;5109830;28;20024;-77
2022/04/25 10:25:56;;;;;;;9.57;7.57;;;18.40;53.30;;;;;;5113744;28;20137;-78
2022/04/25 10:28:43;;;;;;;8.27;6.63;;;18.40;53.40;;;;;;5116154;28;20106;-75
2022/04/25 10:31:13;;;;;;;8.20;7.13;;;18.40;53.00;;;;;;5101898;28;20094;-77
2022/04/25 10:33:58;;;;;;;8.30;7.22;;;18.40;53.20;;;;;;5108170;28;20066;-78
2022/04/25 10:36:39;;;;;;;8.35;7.03;;;18.30;53.70;;;;;;5104530;28;20107;-77
2022/04/25 10:39:14;;;;;;;8.15;6.57;;;18.30;53.40;;;;;;5099417;28;20114;-77
2022/04/25 10:44:28;;;;;;;8.05;6.18;;;18.30;53.90;;;;;;5116156;28;20035;-76
2022/04/25 10:47:03;;;;;;;8.25;6.53;;;18.40;54.20;;;;;;5116181;28;20012;-75
2022/04/25 10:49:38;;;;;;;8.80;6.78;;;18.40;54.20;;;;;;5115796;28;20416;-76
2022/04/25 10:52:07;;;;;;;7.43;6.43;;;18.40;54.60;;;;;;5114484;28;20020;-76
2022/04/25 10:54:54;;;;;;;8.98;7.50;;;18.60;56.30;;;;;;5112732;28;20027;-76
2022/04/25 10:57:20;;;;;;;10.77;7.15;;;18.70;52.00;;;;;;5110719;28;20036;-75
2022/04/25 10:59:46;;;;;;;7.63;6.60;;;18.80;52.50;;;;;;5104674;28;20558;-75
2022/04/25 11:02:21;;;;;;;8.15;7.25;;;19.00;51.60;;;;;;5113865;28;20107;-74
2022/04/25 11:04:47;;;;;;;8.25;6.53;;;19.20;51.50;;;;;;5112171;28;20557;-75
2022/04/25 11:07:21;;;;;;;7.80;6.78;;;19.40;50.30;;;;;;5113891;28;20096;-74
2022/04/25 11:09:47;;;;;;;8.07;6.00;;;19.50;50.10;;;;;;5107871;28;20107;-74
2022/04/25 11:12:15;;;;;;;6.20;5.60;;;19.60;48.80;;;;;;5109778;28;20028;-74
2022/04/25 11:14:57;;;;;;;5.53;4.93;;;19.70;47.40;;;;;;5103469;28;20031;-74
2022/04/25 11:17:23;;;;;;;5.13;4.38;;;19.80;48.00;;;;;;5115371;28;20480;-74
2022/04/25 11:19:57;;;;;;;10.20;7.85;;;19.90;47.30;;;;;;5114056;28;20080;-74
2022/04/25 11:22:31;;;;;;;5.60;4.93;;;19.90;47.50;;;;;;5115135;28;20080;-73
2022/04/25 11:24:57;;;;;;;5.93;3.97;;;20.00;45.20;;;;;;5102806;28;20069;-74
2022/04/25 11:27:23;;;;;;;5.07;4.15;;;20.20;48.40;;;;;;5109297;28;20027;-73
2022/04/25 11:30:15;;;;;;;6.95;5.00;;;20.30;48.30;;;;;;5115240;28;20451;-73
2022/04/25 11:32:43;;;;;;;4.47;4.07;;;20.50;45.40;;;;;;5113189;28;20492;-73
2022/04/25 11:35:09;;;;;;;5.68;5.00;;;20.50;46.30;;;;;;5115044;28;20484;-73
2022/04/25 11:37:35;;;;;;;5.43;4.88;;;20.60;44.40;;;;;;5114876;28;20055;-73
2022/04/25 11:40:09;;;;;;;4.80;4.30;;;20.60;42.70;;;;;;5113170;27;20024;-73
2022/04/25 11:42:36;;;;;;;5.65;4.22;;;20.60;43.80;;;;;;5113618;28;20022;-73
2022/04/25 11:45:04;;;;;;;6.15;4.80;;;20.60;45.30;;;;;;5100442;28;20376;-73
2022/04/25 11:47:31;;;;;;;5.40;4.90;;;20.70;43.90;;;;;;5107666;28;20103;-74
2022/04/25 11:50:02;;;;;;;7.30;5.43;;;20.70;43.50;;;;;;5113436;28;20046;-73
2022/04/25 11:52:28;;;;;;;7.07;5.32;;;20.60;43.10;;;;;;5114768;28;20035;-73
2022/04/25 11:54:55;;;;;;;8.10;5.13;;;20.50;43.30;;;;;;5114799;28;20427;-73
2022/04/25 11:57:21;;;;;;;6.55;5.82;;;20.40;43.10;;;;;;5099058;28;20023;-73
2022/04/25 11:59:47;;;;;;;6.53;5.10;;;20.30;42.00;;;;;;5094353;28;20048;-74
2022/04/25 12:02:13;;;;;;;6.45;4.93;;;20.20;43.90;;;;;;5094479;28;20035;-73
2022/04/25 12:04:41;;;;;;;6.45;5.70;;;20.20;44.60;;;;;;5094376;28;20431;-74
2022/04/25 12:07:08;;;;;;;6.93;5.50;;;20.10;44.30;;;;;;5093154;28;20024;-73
2022/04/25 12:15:35;;;;;;;6.30;4.97;;;20.10;45.00;;;;;;5093771;28;20039;-74
2022/04/25 12:18:19;;;;;;;6.10;5.50;;;20.30;46.30;;;;;;5094131;28;20024;-73
2022/04/25 12:20:51;;;;;;;7.47;5.32;;;20.30;45.10;;;;;;5094025;28;20598;-73
2022/04/25 12:23:36;;;;;;;5.55;5.00;;;20.40;45.80;;;;;;5096911;27;20397;-74
2022/04/25 12:26:03;;;;;;;5.22;4.43;;;20.50;44.40;;;;;;5108689;28;20497;-74
2022/04/25 12:28:37;;;;;;;6.65;4.55;;;20.50;44.90;;;;;;5106739;28;20035;-74
2022/04/25 12:31:09;;;;;;;5.78;5.07;;;20.60;44.30;;;;;;5114291;28;20019;-74
2022/04/25 12:33:37;;;;;;;6.10;5.28;;;20.70;44.40;;;;;;5102064;28;20390;-74
2022/04/25 12:36:11;;;;;;;6.07;5.38;;;20.70;43.90;;;;;;5098555;28;20031;-74
2022/04/25 12:38:41;;;;;;;6.03;5.13;;;20.70;43.80;;;;;;5107436;28;20046;-73
2022/04/25 12:41:09;;;;;;;5.60;5.05;;;20.60;43.50;;;;;;5113598;28;20031;-73
2022/04/25 12:43:45;;;;;;;5.32;4.82;;;20.60;43.60;;;;;;5113907;28;20156;-74
2022/04/25 12:46:16;;;;;;;6.15;5.10;;;20.60;43.50;;;;;;5110817;28;20047;-72
2022/04/25 12:49:03;;;;;;;5.80;4.90;;;20.60;42.90;;;;;;5101844;28;20028;-74
2022/04/25 12:51:40;;;;;;;5.80;5.20;;;20.70;43.90;;;;;;5108965;28;20020;-73
2022/04/25 12:54:18;;;;;;;5.65;5.05;;;20.90;42.50;;;;;;5107009;28;20081;-73
2022/04/25 12:56:44;;;;;;;8.43;4.82;;;21.00;41.90;;;;;;5112596;28;20027;-72
2022/04/25 12:59:09;;;;;;;8.20;4.68;;;21.20;41.30;;;;;;5107523;28;20051;-72
2022/04/25 13:01:36;;;;;;;5.70;4.63;;;21.30;41.80;;;;;;5113421;28;20031;-74
2022/04/25 13:04:11;;;;;;;6.43;3.88;;;21.40;41.30;;;;;;5113682;28;20024;-73
2022/04/25 13:06:37;;;;;;;4.72;4.07;;;21.50;40.50;;;;;;5106333;28;20039;-73
2022/04/25 13:09:04;;;;;;;4.78;4.22;;;21.60;40.00;;;;;;5110357;28;20161;-73
2022/04/25 13:11:31;;;;;;;4.38;3.63;;;21.60;39.50;;;;;;5112767;28;20018;-74
2022/04/25 13:13:57;;;;;;;4.45;3.65;;;21.60;40.40;;;;;;5113570;27;20368;-72
2022/04/25 13:16:24;;;;;;;4.70;4.20;;;21.70;40.30;;;;;;5113475;28;20027;-73
2022/04/25 13:18:50;;;;;;;5.80;4.10;;;21.70;39.60;;;;;;5113412;28;20027;-73
2022/04/25 13:21:17;;;;;;;4.35;3.95;;;21.70;39.30;;;;;;5112493;28;20134;-72
2022/04/25 13:23:42;;;;;;;3.97;3.58;;;21.60;39.20;;;;;;5100431;28;20035;-73
2022/04/25 13:26:09;;;;;;;5.28;3.08;;;21.50;38.50;;;;;;5113375;28;20522;-73